createdAt,value
2022-11-26T00:02:30.015Z,98404.66
2022-11-26T00:04:58.816Z,98400.59
2022-11-26T00:07:28.735Z,98405.69
2022-11-26T00:09:57.121Z,98406.78
2022-11-26T00:12:31.188Z,98402.63
2022-11-26T00:15:00.179Z,98404.53
2022-11-26T00:17:27.197Z,98403.81
2022-11-26T00:19:54.079Z,98406.50
2022-11-26T00:22:31.859Z,98402.97
2022-11-26T00:24:58.860Z,98404.53
2022-11-26T00:27:27.703Z,98410.56
2022-11-26T00:29:55.442Z,98405.00
2022-11-26T00:32:24.837Z,98423.75
2022-11-26T00:34:52.940Z,98417.78
2022-11-26T00:37:26.182Z,98426.53
2022-11-26T00:39:53.438Z,98428.97
2022-11-26T00:42:20.557Z,98429.03
2022-11-26T00:44:47.789Z,98434.16
2022-11-26T00:47:14.763Z,98438.41
2022-11-26T00:49:41.715Z,98444.28
2022-11-26T00:52:34.391Z,98451.03
2022-11-26T00:55:07.327Z,98453.44
2022-11-26T00:57:34.633Z,98450.84
2022-11-26T01:00:01.648Z,98451.72
2022-11-26T01:02:28.580Z,98447.63
2022-11-26T01:04:55.509Z,98454.00
2022-11-26T01:07:22.542Z,98446.38
2022-11-26T01:09:50.317Z,98445.91
2022-11-26T01:12:17.164Z,98441.88
2022-11-26T01:14:44.209Z,98446.44
2022-11-26T01:17:12.369Z,98450.78
2022-11-26T01:19:39.308Z,98455.31
2022-11-26T01:22:06.200Z,98448.38
2022-11-26T01:24:33.079Z,98445.94
2022-11-26T01:26:59.992Z,98457.09
2022-11-26T01:29:26.898Z,98450.28
2022-11-26T01:31:53.861Z,98448.63
2022-11-26T01:34:20.792Z,98448.81
2022-11-26T01:36:47.688Z,98454.16
2022-11-26T01:39:19.973Z,98461.22
2022-11-26T01:42:11.450Z,98462.22
2022-11-26T01:44:38.741Z,98467.00
2022-11-26T01:47:27.127Z,98474.72
2022-11-26T01:50:31.031Z,98468.28
2022-11-26T01:53:14.654Z,98473.63
2022-11-26T01:55:58.932Z,98471.88
2022-11-26T01:58:49.728Z,98466.09
2022-11-26T02:01:18.022Z,98464.78
2022-11-26T02:04:16.338Z,98476.13
2022-11-26T02:06:45.168Z,98468.53
2022-11-26T02:09:12.961Z,98482.78
2022-11-26T02:11:39.955Z,98486.59
2022-11-26T02:14:18.152Z,98485.19
2022-11-26T02:16:57.731Z,98485.34
2022-11-26T02:19:43.073Z,98485.50
2022-11-26T02:22:10.099Z,98489.94
2022-11-26T02:25:04.064Z,98501.25
2022-11-26T02:27:57.468Z,98502.91
2022-11-26T02:30:24.577Z,98500.19
2022-11-26T02:33:05.447Z,98504.25
2022-11-26T02:35:48.734Z,98514.31
2022-11-26T02:38:23.047Z,98511.72
2022-11-26T02:40:51.834Z,98509.69
2022-11-26T02:43:20.652Z,98518.25
2022-11-26T02:45:52.798Z,98514.66
2022-11-26T02:48:27.890Z,98517.34
2022-11-26T02:51:02.223Z,98514.84
2022-11-26T02:53:31.324Z,98515.66
2022-11-26T02:56:11.364Z,98514.75
2022-11-26T02:58:38.930Z,98511.47
2022-11-26T03:01:12.820Z,98516.84
2022-11-26T03:03:46.673Z,98523.84
2022-11-26T03:06:15.133Z,98530.03
2022-11-26T03:08:45.296Z,98521.50
2022-11-26T03:11:13.149Z,98522.25
2022-11-26T03:13:40.018Z,98533.56
2022-11-26T03:16:07.196Z,98546.44
2022-11-26T03:18:34.144Z,98552.47
2022-11-26T03:21:01.060Z,98553.22
2022-11-26T03:23:27.920Z,98559.31
2022-11-26T03:25:54.785Z,98558.47
2022-11-26T03:28:21.695Z,98557.75
2022-11-26T03:30:52.519Z,98561.16
2022-11-26T03:33:19.650Z,98555.97
2022-11-26T03:35:48.933Z,98564.59
2022-11-26T03:38:17.076Z,98562.00
2022-11-26T03:40:44.084Z,98565.44
2022-11-26T03:43:10.970Z,98560.38
2022-11-26T03:45:37.916Z,98560.38
2022-11-26T03:48:05.206Z,98558.56
2022-11-26T03:50:32.118Z,98561.16
2022-11-26T03:52:59.083Z,98544.91
2022-11-26T03:55:26.041Z,98549.13
2022-11-26T03:57:52.895Z,98549.97
2022-11-26T04:00:20.443Z,98554.31
2022-11-26T04:02:47.344Z,98556.06
2022-11-26T04:05:14.465Z,98553.63
2022-11-26T04:07:41.489Z,98552.94
2022-11-26T04:10:09.017Z,98560.72
2022-11-26T04:12:35.923Z,98568.50
2022-11-26T04:15:03.362Z,98568.50
2022-11-26T04:17:30.248Z,98563.41
2022-11-26T04:19:57.197Z,98565.00
2022-11-26T04:22:24.174Z,98570.25
2022-11-26T04:24:51.082Z,98572.94
2022-11-26T04:27:18.050Z,98574.00
2022-11-26T04:29:44.921Z,98574.25
2022-11-26T04:32:11.862Z,98565.72
2022-11-26T04:34:39.000Z,98562.50
2022-11-26T04:37:06.041Z,98567.94
2022-11-26T04:39:32.914Z,98567.34
2022-11-26T04:41:59.877Z,98573.84
2022-11-26T04:44:26.926Z,98589.47
2022-11-26T04:46:53.815Z,98591.28
2022-11-26T04:49:20.650Z,98603.63
2022-11-26T04:51:47.502Z,98607.16
2022-11-26T04:54:14.438Z,98614.16
2022-11-26T04:56:41.348Z,98622.78
2022-11-26T04:59:08.291Z,98629.53
2022-11-26T05:01:35.221Z,98628.78
2022-11-26T05:04:02.153Z,98636.44
2022-11-26T05:06:29.063Z,98632.84
2022-11-26T05:08:55.912Z,98624.31
2022-11-26T05:11:22.777Z,98631.91
2022-11-26T05:13:49.624Z,98622.38
2022-11-26T05:16:16.577Z,98627.66
2022-11-26T05:18:43.866Z,98632.75
2022-11-26T05:21:10.768Z,98629.31
2022-11-26T05:23:37.683Z,98639.03
2022-11-26T05:26:04.604Z,98633.06
2022-11-26T05:28:31.466Z,98630.09
2022-11-26T05:31:03.138Z,98631.16
2022-11-26T05:33:30.811Z,98638.31
2022-11-26T05:35:57.766Z,98638.53
2022-11-26T05:38:24.775Z,98646.06
2022-11-26T05:40:51.802Z,98642.97
2022-11-26T05:43:18.889Z,98649.03
2022-11-26T05:45:45.957Z,98646.44
2022-11-26T05:48:13.024Z,98643.97
2022-11-26T05:50:39.968Z,98655.25
2022-11-26T05:53:06.942Z,98667.91
2022-11-26T05:55:34.027Z,98663.19
2022-11-26T05:58:00.974Z,98669.16
2022-11-26T06:00:28.124Z,98677.38
2022-11-26T06:02:55.129Z,98676.13
2022-11-26T06:05:22.182Z,98672.31
2022-11-26T06:07:49.905Z,98678.50
2022-11-26T06:10:17.005Z,98674.53
2022-11-26T06:12:43.859Z,98682.56
2022-11-26T06:15:10.981Z,98687.03
2022-11-26T06:17:37.913Z,98694.75
2022-11-26T06:20:05.503Z,98689.41
2022-11-26T06:22:37.354Z,98690.63
2022-11-26T06:25:05.390Z,98688.66
2022-11-26T06:27:34.145Z,98693.44
2022-11-26T06:30:02.156Z,98699.28
2022-11-26T06:32:30.111Z,98697.56
2022-11-26T06:34:57.120Z,98702.47
2022-11-26T06:37:25.243Z,98711.72
2022-11-26T06:39:52.652Z,98702.41
2022-11-26T06:42:19.768Z,98705.03
2022-11-26T06:44:46.781Z,98706.16
2022-11-26T06:47:14.445Z,98710.59
2022-11-26T06:49:41.310Z,98709.13
2022-11-26T06:52:08.279Z,98711.59
2022-11-26T06:54:35.202Z,98712.53
2022-11-26T06:57:02.239Z,98712.91
2022-11-26T06:59:29.272Z,98721.25
2022-11-26T07:01:56.253Z,98716.16
2022-11-26T07:04:23.299Z,98715.81
2022-11-26T07:06:50.262Z,98717.84
2022-11-26T07:09:17.270Z,98724.72
2022-11-26T07:11:44.278Z,98726.25
2022-11-26T07:14:11.194Z,98737.81
2022-11-26T07:16:38.142Z,98730.41
2022-11-26T07:19:05.651Z,98728.69
2022-11-26T07:21:32.955Z,98726.16
2022-11-26T07:24:00.008Z,98729.50
2022-11-26T07:26:26.910Z,98730.78
2022-11-26T07:28:54.007Z,98731.63
2022-11-26T07:31:22.392Z,98734.03
2022-11-26T07:33:49.943Z,98744.88
2022-11-26T07:36:26.591Z,98727.31
2022-11-26T07:38:55.070Z,98737.91
2022-11-26T07:41:22.071Z,98744.19
2022-11-26T07:43:49.897Z,98743.75
2022-11-26T07:46:21.112Z,98740.69
2022-11-26T07:48:48.403Z,98744.78
2022-11-26T07:51:25.009Z,98741.72
2022-11-26T07:53:52.243Z,98749.84
2022-11-26T07:56:19.149Z,98747.63
2022-11-26T07:58:47.192Z,98741.84
2022-11-26T08:01:16.720Z,98745.22
2022-11-26T08:03:46.273Z,98751.09
2022-11-26T08:06:15.580Z,98751.38
2022-11-26T08:08:42.773Z,98750.78
2022-11-26T08:11:23.044Z,98744.97
2022-11-26T08:13:54.240Z,98743.28
2022-11-26T08:16:21.519Z,98756.63
2022-11-26T08:18:48.831Z,98757.00
2022-11-26T08:21:15.658Z,98752.44
2022-11-26T08:23:42.651Z,98762.94
2022-11-26T08:26:23.868Z,98755.41
2022-11-26T08:28:55.063Z,98759.31
2022-11-26T08:31:24.844Z,98767.69
2022-11-26T08:33:52.020Z,98757.16
2022-11-26T08:36:18.991Z,98760.53
2022-11-26T08:38:45.864Z,98762.25
2022-11-26T08:41:13.938Z,98764.22
2022-11-26T08:46:28.489Z,98769.03
2022-11-26T08:48:56.783Z,98775.56
2022-11-26T08:51:24.433Z,98773.00
2022-11-26T08:53:51.397Z,98769.06
2022-11-26T08:56:18.351Z,98760.44
2022-11-26T08:58:45.701Z,98761.94
2022-11-26T09:01:20.382Z,98763.19
2022-11-26T09:03:52.062Z,98756.41
2022-11-26T09:06:20.466Z,98764.22
2022-11-26T09:09:06.308Z,98754.75
2022-11-26T09:11:36.332Z,98756.41
2022-11-26T09:14:03.665Z,98751.91
2022-11-26T09:16:31.163Z,98750.69
2022-11-26T09:19:01.120Z,98752.69
2022-11-26T09:21:28.203Z,98750.16
2022-11-26T09:23:55.454Z,98754.56
2022-11-26T09:26:22.689Z,98747.72
2022-11-26T09:28:49.647Z,98742.06
2022-11-26T09:31:17.182Z,98739.94
2022-11-26T09:33:44.920Z,98734.91
2022-11-26T09:36:14.677Z,98737.22
2022-11-26T09:38:41.942Z,98736.91
2022-11-26T09:41:24.120Z,98736.81
2022-11-26T09:44:12.461Z,98732.81
2022-11-26T10:17:57.746Z,98721.13
2022-11-26T10:21:01.648Z,98711.97
2022-11-26T10:23:45.584Z,98720.38
2022-11-26T10:26:15.434Z,98719.69
2022-11-26T10:28:49.629Z,98709.22
2022-11-26T10:31:26.491Z,98717.78
2022-11-26T10:34:04.398Z,98712.56
2022-11-26T10:36:42.559Z,98723.25
2022-11-26T10:39:14.953Z,98707.97
2022-11-26T10:41:41.886Z,98717.59
2022-11-26T10:44:40.240Z,98706.72
2022-11-26T10:47:28.949Z,98714.25
2022-11-26T10:50:46.211Z,98716.63
2022-11-26T10:53:06.624Z,98713.28
2022-11-26T10:55:41.355Z,98731.81
2022-11-26T10:58:16.848Z,98725.03
2022-11-26T11:01:04.103Z,98730.75
2022-11-26T11:04:07.455Z,98730.03
2022-11-26T11:06:29.094Z,98739.75
2022-11-26T11:08:56.085Z,98735.44
2022-11-26T11:11:31.262Z,98748.53
2022-11-26T11:13:58.606Z,98742.56
2022-11-26T11:16:27.423Z,98745.16
2022-11-26T11:19:01.494Z,98747.91
2022-11-26T11:21:37.614Z,98744.56
2022-11-26T11:24:09.545Z,98743.00
2022-11-26T11:26:43.550Z,98742.66
2022-11-26T11:29:29.289Z,98745.59
2022-11-26T11:31:57.794Z,98742.78
2022-11-26T11:34:31.974Z,98739.63
2022-11-26T11:37:21.527Z,98729.00
2022-11-26T11:40:18.153Z,98737.75
2022-11-26T11:42:51.946Z,98730.84
2022-11-26T11:45:29.616Z,98732.31
2022-11-26T11:48:01.514Z,98738.69
2022-11-26T11:50:36.414Z,98731.47
2022-11-26T11:53:15.162Z,98725.44
2022-11-26T11:56:00.957Z,98721.56
2022-11-26T11:58:43.307Z,98726.16
2022-11-26T12:01:18.086Z,98723.44
2022-11-26T12:03:53.614Z,98731.69
2022-11-26T12:06:49.111Z,98726.78
2022-11-26T12:09:27.824Z,98721.97
2022-11-26T12:12:12.647Z,98733.28
2022-11-26T12:14:44.596Z,98727.72
2022-11-26T12:17:41.085Z,98728.88
2022-11-26T12:20:22.650Z,98730.31
2022-11-26T12:23:16.050Z,98730.31
2022-11-26T12:25:49.584Z,98728.25
2022-11-26T12:28:22.761Z,98734.22
2022-11-26T12:31:13.332Z,98738.69
2022-11-26T12:33:49.903Z,98746.41
2022-11-26T12:36:22.503Z,98741.47
2022-11-26T12:38:55.936Z,98745.59
2022-11-26T12:41:32.063Z,98745.16
2022-11-26T12:44:22.111Z,98738.56
2022-11-26T12:47:17.988Z,98739.44
2022-11-26T12:50:23.131Z,98741.41
2022-11-26T12:53:32.064Z,98736.19
2022-11-26T12:56:14.485Z,98743.09
2022-11-26T12:58:52.567Z,98745.59
2022-11-26T13:01:19.921Z,98748.38
2022-11-26T13:03:46.913Z,98753.19
2022-11-26T13:06:41.289Z,98755.81
2022-11-26T13:09:26.124Z,98762.72
2022-11-26T13:12:12.995Z,98767.97
2022-11-26T13:14:52.364Z,98759.47
2022-11-26T13:17:43.075Z,98759.19
2022-11-26T13:20:43.696Z,98762.94
2022-11-26T13:23:41.076Z,98763.16
2022-11-26T13:26:17.428Z,98763.34
2022-11-26T13:29:02.974Z,98762.59
2022-11-26T13:31:54.658Z,98757.56
2022-11-26T13:34:46.128Z,98762.47
2022-11-26T13:37:46.867Z,98761.66
2022-11-26T13:40:19.591Z,98765.16
2022-11-26T13:43:11.641Z,98773.75
2022-11-26T13:45:58.086Z,98769.56
2022-11-26T13:48:47.122Z,98773.50
2022-11-26T13:51:21.490Z,98776.97
2022-11-26T13:54:12.214Z,98779.78
2022-11-26T13:56:41.269Z,98788.44
2022-11-26T13:59:26.884Z,98786.53
2022-11-26T14:01:55.774Z,98787.75
2022-11-26T14:04:22.642Z,98789.06
2022-11-26T14:07:04.581Z,98782.38
2022-11-26T14:09:43.209Z,98790.38
2022-11-26T14:12:17.957Z,98799.44
2022-11-26T14:14:47.961Z,98802.25
2022-11-26T14:17:24.855Z,98802.97
2022-11-26T14:19:58.754Z,98803.63
2022-11-26T14:22:34.321Z,98808.09
2022-11-26T14:25:07.329Z,98811.75
2022-11-26T14:27:37.082Z,98814.53
2022-11-26T14:30:06.536Z,98819.13
2022-11-26T14:33:11.947Z,98816.91
2022-11-26T14:35:41.208Z,98819.78
2022-11-26T14:38:24.634Z,98828.84
2022-11-26T14:41:01.807Z,98833.22
2022-11-26T14:43:29.764Z,98836.84
2022-11-26T14:46:13.283Z,98844.03
2022-11-26T14:48:48.834Z,98840.41
2022-11-26T14:51:24.954Z,98838.81
2022-11-26T14:53:53.053Z,98841.69
2022-11-26T14:56:23.109Z,98846.44
2022-11-26T14:58:54.001Z,98853.63
2022-11-26T15:01:24.673Z,98846.34
2022-11-26T15:04:01.187Z,98844.84
2022-11-26T15:06:38.506Z,98853.81
2022-11-26T15:09:15.326Z,98856.06
2022-11-26T15:11:49.803Z,98856.44
2022-11-26T15:14:22.862Z,98852.31
2022-11-26T15:16:57.043Z,98849.72
2022-11-26T15:19:25.000Z,98856.53
2022-11-26T15:21:52.293Z,98861.38
2022-11-26T15:24:19.308Z,98861.19
2022-11-26T15:26:47.604Z,98866.22
2022-11-26T15:29:36.285Z,98870.25
2022-11-26T15:32:04.433Z,98870.41
2022-11-26T15:34:33.199Z,98876.66
2022-11-26T15:37:00.438Z,98877.59
2022-11-26T15:39:30.741Z,98891.00
2022-11-26T15:42:04.239Z,98880.69
2022-11-26T15:44:39.028Z,98879.28
2022-11-26T15:47:18.656Z,98884.09
2022-11-26T15:49:52.106Z,98881.41
2022-11-26T15:52:24.177Z,98881.94
2022-11-26T15:55:16.572Z,98884.09
2022-11-26T15:57:44.225Z,98884.91
2022-11-26T16:00:21.887Z,98885.16
2022-11-26T16:02:49.299Z,98890.44
2022-11-26T16:05:42.554Z,98891.44
2022-11-26T16:08:32.907Z,98891.75
2022-11-26T16:11:21.334Z,98900.03
2022-11-26T16:13:48.186Z,98892.75
2022-11-26T16:16:23.414Z,98899.41
2022-11-26T16:18:59.562Z,98900.88
2022-11-26T16:21:34.447Z,98901.41
2022-11-26T16:24:26.404Z,98893.31
2022-11-26T16:27:01.952Z,98900.28
2022-11-26T16:29:30.291Z,98900.91
2022-11-26T16:31:57.497Z,98899.47
2022-11-26T16:34:27.839Z,98904.69
2022-11-26T16:37:18.168Z,98898.44
2022-11-26T16:39:45.627Z,98896.13
2022-11-26T16:42:18.089Z,98894.41
2022-11-26T16:44:45.054Z,98898.47
2022-11-26T16:47:22.368Z,98897.88
2022-11-26T16:49:49.374Z,98901.94
2022-11-26T16:52:18.541Z,98900.47
2022-11-26T16:54:45.693Z,98896.34
2022-11-26T16:57:20.725Z,98897.34
2022-11-26T16:59:51.969Z,98903.59
2022-11-26T17:02:21.415Z,98904.31
2022-11-26T17:04:48.556Z,98895.53
2022-11-26T17:07:29.215Z,98897.66
2022-11-26T17:09:56.865Z,98897.31
2022-11-26T17:12:25.430Z,98899.22
2022-11-26T17:17:25.045Z,98901.00
2022-11-26T17:19:52.795Z,98901.38
2022-11-26T17:22:20.401Z,98904.41
2022-11-26T17:24:47.388Z,98908.34
2022-11-26T17:27:16.842Z,98903.16
2022-11-26T17:29:45.188Z,98910.09
2022-11-26T17:32:22.997Z,98909.16
2022-11-26T17:34:50.103Z,98902.09
2022-11-26T17:37:25.000Z,98906.09
2022-11-26T17:39:52.444Z,98906.25
2022-11-26T17:42:20.056Z,98914.72
2022-11-26T17:44:48.016Z,98908.00
2022-11-26T17:47:17.968Z,98921.06
2022-11-26T17:49:46.418Z,98919.91
2022-11-26T17:52:14.893Z,98923.69
2022-11-26T17:54:41.978Z,98925.19
2022-11-26T17:57:10.749Z,98927.38
2022-11-26T17:59:37.924Z,98931.38
2022-11-26T18:02:05.607Z,98932.66
2022-11-26T18:04:32.721Z,98928.81
2022-11-26T18:07:12.491Z,98931.69
2022-11-26T18:09:40.942Z,98929.72
2022-11-26T18:12:17.960Z,98933.63
2022-11-26T18:14:47.259Z,98931.66
2022-11-26T18:17:14.300Z,98936.09
2022-11-26T18:19:43.696Z,98932.44
2022-11-26T18:22:15.560Z,98937.84
2022-11-26T18:24:49.210Z,98939.88
2022-11-26T18:27:22.863Z,98942.31
2022-11-26T18:29:49.881Z,98935.22
2022-11-26T18:32:17.431Z,98934.75
2022-11-26T18:34:44.789Z,98932.59
2022-11-26T18:37:13.104Z,98945.25
2022-11-26T18:39:40.209Z,98939.59
2022-11-26T18:42:36.621Z,98943.09
2022-11-26T18:44:54.314Z,98940.56
2022-11-26T18:47:21.198Z,98941.41
2022-11-26T18:49:48.408Z,98943.94
2022-11-26T18:52:15.609Z,98949.97
2022-11-26T18:54:42.626Z,98951.84
2022-11-26T18:57:09.522Z,98952.75
2022-11-26T18:59:36.601Z,98949.47
2022-11-26T19:02:03.950Z,98952.13
2022-11-26T19:04:30.973Z,98959.06
2022-11-26T19:06:57.919Z,98955.72
2022-11-26T19:09:24.838Z,98956.56
2022-11-26T19:11:54.541Z,98957.47
2022-11-26T19:14:21.774Z,98961.81
2022-11-26T19:16:51.368Z,98959.22
2022-11-26T19:19:18.488Z,98970.66
2022-11-26T19:21:45.539Z,98969.03
2022-11-26T19:24:12.829Z,98973.38
2022-11-26T19:26:43.203Z,98970.72
2022-11-26T19:29:12.444Z,98968.97
2022-11-26T19:31:40.059Z,98975.56
2022-11-26T19:34:12.684Z,98977.75
2022-11-26T19:36:39.933Z,98972.47
2022-11-26T19:39:07.679Z,98978.41
2022-11-26T19:41:34.713Z,98975.75
2022-11-26T19:44:03.717Z,98967.75
2022-11-26T19:46:32.035Z,98978.75
2022-11-26T19:48:59.000Z,98978.47
2022-11-26T19:51:27.854Z,98987.81
2022-11-26T19:53:56.233Z,98978.25
2022-11-26T19:56:24.523Z,98981.56
2022-11-26T19:58:54.051Z,98981.47
2022-11-26T20:01:22.253Z,98989.25
2022-11-26T20:03:49.820Z,98972.78
2022-11-26T20:08:47.447Z,98978.13
2022-11-26T20:11:16.059Z,98970.41
2022-11-26T20:13:44.736Z,98973.91
2022-11-26T20:16:29.700Z,98973.06
2022-11-26T20:18:58.137Z,98974.00
2022-11-26T20:21:27.827Z,98974.75
2022-11-26T20:23:57.469Z,98974.91
2022-11-26T20:26:27.963Z,98976.66
2022-11-26T20:28:55.879Z,98970.69
2022-11-26T20:31:24.443Z,98981.91
2022-11-26T20:33:53.020Z,98982.75
2022-11-26T20:36:22.996Z,98980.22
2022-11-26T20:39:01.659Z,98981.78
2022-11-26T20:41:29.539Z,98974.91
2022-11-26T20:43:59.480Z,98980.00
2022-11-26T20:46:28.315Z,98973.06
2022-11-26T20:48:55.819Z,98973.81
2022-11-26T20:51:23.477Z,98981.47
2022-11-26T20:53:51.782Z,98978.88
2022-11-26T20:56:20.580Z,98985.75
2022-11-26T20:58:47.669Z,98982.25
2022-11-26T21:01:26.156Z,98991.66
2022-11-26T21:03:53.891Z,98991.66
2022-11-26T21:06:29.706Z,98985.47
2022-11-26T21:09:01.904Z,98988.91
2022-11-26T21:11:29.940Z,98989.59
2022-11-26T21:13:58.799Z,98992.13
2022-11-26T21:16:26.197Z,98998.97
2022-11-26T21:18:56.689Z,98997.09
2022-11-26T21:21:25.369Z,98989.22
2022-11-26T21:23:52.454Z,98988.38
2022-11-26T21:26:24.669Z,98993.50
2022-11-26T21:28:52.903Z,98993.50
2022-11-26T21:31:21.057Z,99001.53
2022-11-26T21:33:54.288Z,99001.56
2022-11-26T21:36:23.023Z,98998.13
2022-11-26T21:38:50.603Z,98995.91
2022-11-26T21:41:20.064Z,98986.66
2022-11-26T21:43:48.073Z,98991.16
2022-11-26T21:46:22.527Z,98997.34
2022-11-26T21:48:49.543Z,99000.84
2022-11-26T21:51:17.966Z,99001.91
2022-11-26T21:53:45.791Z,98995.78
2022-11-26T21:56:20.729Z,98993.97
2022-11-26T21:58:48.870Z,98999.09
2022-11-26T22:01:24.977Z,98994.66
2022-11-26T22:03:55.664Z,98996.44
2022-11-26T22:06:24.821Z,98988.63
2022-11-26T22:08:52.142Z,98993.69
2022-11-26T22:11:21.963Z,98989.47
2022-11-26T22:13:49.321Z,98992.81
2022-11-26T22:16:17.980Z,98995.50
2022-11-26T22:18:46.398Z,98988.50
2022-11-26T22:21:19.846Z,98993.69
2022-11-26T22:23:46.867Z,98986.88
2022-11-26T22:26:14.153Z,98988.63
2022-11-26T22:28:41.936Z,98988.78
2022-11-26T22:31:29.227Z,98983.56
2022-11-26T22:33:59.636Z,98983.66
2022-11-26T22:36:27.128Z,98980.22
2022-11-26T22:38:54.597Z,98980.22
2022-11-26T22:41:22.049Z,98979.31
2022-11-26T22:43:49.076Z,98971.59
2022-11-26T22:46:18.949Z,98978.56
2022-11-26T22:48:57.272Z,98971.53
2022-11-26T22:51:26.870Z,98969.13
2022-11-26T22:53:56.489Z,98969.09
2022-11-26T22:56:24.239Z,98964.81
2022-11-26T22:58:51.366Z,98964.94
2022-11-26T23:01:23.924Z,98959.22
2022-11-26T23:03:51.736Z,98960.25
2022-11-26T23:06:21.162Z,98947.44
2022-11-26T23:08:49.044Z,98951.94
2022-11-26T23:11:20.348Z,98958.72
2022-11-26T23:13:49.777Z,98954.38
2022-11-26T23:16:18.370Z,98956.97
2022-11-26T23:18:45.358Z,98950.09
2022-11-26T23:21:15.982Z,98957.81
2022-11-26T23:23:43.930Z,98953.38
2022-11-26T23:26:14.370Z,98949.97
2022-11-26T23:28:41.417Z,98949.19
2022-11-26T23:31:15.156Z,98957.88
2022-11-26T23:33:42.369Z,98954.38
2022-11-26T23:36:09.705Z,98957.88
2022-11-26T23:38:36.625Z,98951.09
2022-11-26T23:41:05.419Z,98946.94
2022-11-26T23:43:34.496Z,98955.44
2022-11-26T23:46:19.360Z,98956.34
2022-11-26T23:48:47.123Z,98949.41
2022-11-26T23:51:17.545Z,98951.16
2022-11-26T23:53:46.743Z,98949.47
2022-11-26T23:56:20.134Z,98944.28
2022-11-26T23:58:57.429Z,98948.00
